sensor_id;sensor_type;location;lat;lon;timestamp;P1;durP1;ratioP1;P2;durP2;ratioP2
40511;SDS011;26213;52.446;20.706;2023-05-10T00:01:28;14.52;;;6.28;;
40511;SDS011;26213;52.446;20.706;2023-05-10T00:03:53;15.45;;;7.22;;
40511;SDS011;26213;52.446;20.706;2023-05-10T00:06:18;11.30;;;6.07;;
40511;SDS011;26213;52.446;20.706;2023-05-10T00:08:44;9.82;;;5.72;;
40511;SDS011;26213;52.446;20.706;2023-05-10T00:11:10;11.70;;;6.05;;
40511;SDS011;26213;52.446;20.706;2023-05-10T00:13:35;13.20;;;6.57;;
40511;SDS011;26213;52.446;20.706;2023-05-10T00:16:01;12.57;;;6.57;;
40511;SDS011;26213;52.446;20.706;2023-05-10T00:18:26;9.80;;;5.88;;
40511;SDS011;26213;52.446;20.706;2023-05-10T00:20:52;11.25;;;5.32;;
40511;SDS011;26213;52.446;20.706;2023-05-10T00:23:17;11.80;;;5.82;;
40511;SDS011;26213;52.446;20.706;2023-05-10T00:25:42;10.55;;;5.95;;
40511;SDS011;26213;52.446;20.706;2023-05-10T00:28:08;14.40;;;6.22;;
40511;SDS011;26213;52.446;20.706;2023-05-10T00:30:33;13.00;;;6.47;;
40511;SDS011;26213;52.446;20.706;2023-05-10T00:32:59;10.18;;;5.70;;
40511;SDS011;26213;52.446;20.706;2023-05-10T00:35:24;12.20;;;6.63;;
40511;SDS011;26213;52.446;20.706;2023-05-10T00:37:49;19.75;;;6.25;;
40511;SDS011;26213;52.446;20.706;2023-05-10T00:40:15;13.90;;;6.07;;
40511;SDS011;26213;52.446;20.706;2023-05-10T00:42:40;16.05;;;6.43;;
40511;SDS011;26213;52.446;20.706;2023-05-10T00:45:06;11.73;;;6.15;;
40511;SDS011;26213;52.446;20.706;2023-05-10T00:47:32;12.57;;;6.75;;
40511;SDS011;26213;52.446;20.706;2023-05-10T00:49:58;13.07;;;5.93;;
40511;SDS011;26213;52.446;20.706;2023-05-10T00:52:25;9.05;;;5.80;;
40511;SDS011;26213;52.446;20.706;2023-05-10T00:54:51;10.90;;;6.13;;
40511;SDS011;26213;52.446;20.706;2023-05-10T00:57:17;11.48;;;6.75;;
40511;SDS011;26213;52.446;20.706;2023-05-10T00:59:42;16.85;;;6.82;;
40511;SDS011;26213;52.446;20.706;2023-05-10T01:02:08;13.23;;;7.10;;
40511;SDS011;26213;52.446;20.706;2023-05-10T01:04:34;10.10;;;6.10;;
40511;SDS011;26213;52.446;20.706;2023-05-10T01:07:00;11.38;;;5.88;;
40511;SDS011;26213;52.446;20.706;2023-05-10T01:09:26;11.40;;;6.72;;
40511;SDS011;26213;52.446;20.706;2023-05-10T01:11:51;14.10;;;5.97;;
40511;SDS011;26213;52.446;20.706;2023-05-10T01:14:18;11.05;;;6.22;;
40511;SDS011;26213;52.446;20.706;2023-05-10T01:16:44;10.57;;;5.93;;
40511;SDS011;26213;52.446;20.706;2023-05-10T01:19:12;13.73;;;6.30;;
40511;SDS011;26213;52.446;20.706;2023-05-10T01:30:23;14.18;;;5.57;;
40511;SDS011;26213;52.446;20.706;2023-05-10T01:32:46;10.32;;;5.85;;
40511;SDS011;26213;52.446;20.706;2023-05-10T01:41:08;17.65;;;5.47;;
40511;SDS011;26213;52.446;20.706;2023-05-10T01:43:19;9.77;;;5.60;;
40511;SDS011;26213;52.446;20.706;2023-05-10T01:48:40;12.88;;;5.68;;
40511;SDS011;26213;52.446;20.706;2023-05-10T01:51:12;10.98;;;5.65;;
40511;SDS011;26213;52.446;20.706;2023-05-10T01:53:39;12.82;;;6.05;;
40511;SDS011;26213;52.446;20.706;2023-05-10T01:56:05;11.40;;;5.82;;
40511;SDS011;26213;52.446;20.706;2023-05-10T01:58:32;11.02;;;5.97;;
40511;SDS011;26213;52.446;20.706;2023-05-10T02:01:00;10.38;;;5.85;;
40511;SDS011;26213;52.446;20.706;2023-05-10T02:03:26;11.65;;;6.50;;
40511;SDS011;26213;52.446;20.706;2023-05-10T02:05:53;10.52;;;5.32;;
40511;SDS011;26213;52.446;20.706;2023-05-10T02:08:20;11.23;;;5.93;;
40511;SDS011;26213;52.446;20.706;2023-05-10T02:10:46;11.60;;;5.85;;
40511;SDS011;26213;52.446;20.706;2023-05-10T02:13:12;10.55;;;5.90;;
40511;SDS011;26213;52.446;20.706;2023-05-10T02:15:38;11.55;;;6.22;;
40511;SDS011;26213;52.446;20.706;2023-05-10T02:18:05;14.25;;;6.07;;
40511;SDS011;26213;52.446;20.706;2023-05-10T02:20:31;13.27;;;6.07;;
40511;SDS011;26213;52.446;20.706;2023-05-10T02:22:57;12.88;;;5.88;;
40511;SDS011;26213;52.446;20.706;2023-05-10T02:25:23;13.43;;;6.07;;
40511;SDS011;26213;52.446;20.706;2023-05-10T02:27:49;10.38;;;5.10;;
40511;SDS011;26213;52.446;20.706;2023-05-10T02:30:17;11.48;;;6.10;;
40511;SDS011;26213;52.446;20.706;2023-05-10T02:32:43;13.45;;;5.75;;
40511;SDS011;26213;52.446;20.706;2023-05-10T02:35:09;10.15;;;5.53;;
40511;SDS011;26213;52.446;20.706;2023-05-10T02:37:35;9.52;;;5.22;;
40511;SDS011;26213;52.446;20.706;2023-05-10T02:40:02;12.23;;;5.93;;
40511;SDS011;26213;52.446;20.706;2023-05-10T02:42:31;9.43;;;5.18;;
40511;SDS011;26213;52.446;20.706;2023-05-10T02:45:02;10.18;;;5.60;;
40511;SDS011;26213;52.446;20.706;2023-05-10T02:47:31;12.40;;;5.95;;
40511;SDS011;26213;52.446;20.706;2023-05-10T02:49:56;11.93;;;5.43;;
40511;SDS011;26213;52.446;20.706;2023-05-10T02:52:25;8.35;;;4.72;;
40511;SDS011;26213;52.446;20.706;2023-05-10T02:54:54;13.48;;;6.35;;
40511;SDS011;26213;52.446;20.706;2023-05-10T02:57:22;10.23;;;4.95;;
40511;SDS011;26213;52.446;20.706;2023-05-10T02:59:51;14.77;;;5.80;;
40511;SDS011;26213;52.446;20.706;2023-05-10T03:02:16;11.00;;;5.80;;
40511;SDS011;26213;52.446;20.706;2023-05-10T03:04:42;10.68;;;4.97;;
40511;SDS011;26213;52.446;20.706;2023-05-10T03:07:07;10.18;;;4.43;;
40511;SDS011;26213;52.446;20.706;2023-05-10T03:09:33;11.30;;;5.45;;
40511;SDS011;26213;52.446;20.706;2023-05-10T03:14:42;11.32;;;5.47;;
40511;SDS011;26213;52.446;20.706;2023-05-10T03:17:34;9.32;;;5.40;;
40511;SDS011;26213;52.446;20.706;2023-05-10T03:20:11;10.00;;;5.22;;
40511;SDS011;26213;52.446;20.706;2023-05-10T03:22:46;11.68;;;6.10;;
40511;SDS011;26213;52.446;20.706;2023-05-10T03:25:15;14.73;;;5.90;;
40511;SDS011;26213;52.446;20.706;2023-05-10T03:27:42;10.13;;;5.55;;
40511;SDS011;26213;52.446;20.706;2023-05-10T03:30:10;9.30;;;5.50;;
40511;SDS011;26213;52.446;20.706;2023-05-10T03:32:36;9.20;;;5.70;;
40511;SDS011;26213;52.446;20.706;2023-05-10T03:35:08;10.38;;;4.63;;
40511;SDS011;26213;52.446;20.706;2023-05-10T03:37:38;11.35;;;5.75;;
40511;SDS011;26213;52.446;20.706;2023-05-10T03:40:03;10.18;;;5.43;;
40511;SDS011;26213;52.446;20.706;2023-05-10T03:42:30;14.18;;;5.15;;
40511;SDS011;26213;52.446;20.706;2023-05-10T03:44:55;10.82;;;5.00;;
40511;SDS011;26213;52.446;20.706;2023-05-10T03:47:21;11.55;;;4.93;;
40511;SDS011;26213;52.446;20.706;2023-05-10T03:49:46;12.75;;;5.63;;
40511;SDS011;26213;52.446;20.706;2023-05-10T03:52:11;12.93;;;5.47;;
40511;SDS011;26213;52.446;20.706;2023-05-10T03:54:37;8.60;;;5.05;;
40511;SDS011;26213;52.446;20.706;2023-05-10T03:57:03;10.27;;;5.50;;
40511;SDS011;26213;52.446;20.706;2023-05-10T03:59:28;12.10;;;5.55;;
40511;SDS011;26213;52.446;20.706;2023-05-10T04:01:54;13.35;;;5.53;;
40511;SDS011;26213;52.446;20.706;2023-05-10T04:04:20;10.73;;;4.78;;
40511;SDS011;26213;52.446;20.706;2023-05-10T04:06:46;9.23;;;4.80;;
40511;SDS011;26213;52.446;20.706;2023-05-10T04:09:11;12.40;;;5.00;;
40511;SDS011;26213;52.446;20.706;2023-05-10T04:11:37;7.95;;;4.93;;
40511;SDS011;26213;52.446;20.706;2023-05-10T04:14:02;15.20;;;5.13;;
40511;SDS011;26213;52.446;20.706;2023-05-10T04:16:28;11.35;;;4.88;;
40511;SDS011;26213;52.446;20.706;2023-05-10T04:18:53;14.05;;;5.18;;
40511;SDS011;26213;52.446;20.706;2023-05-10T04:21:18;9.82;;;5.32;;
40511;SDS011;26213;52.446;20.706;2023-05-10T04:23:44;8.90;;;5.03;;
40511;SDS011;26213;52.446;20.706;2023-05-10T04:26:10;7.80;;;4.85;;
40511;SDS011;26213;52.446;20.706;2023-05-10T04:28:35;8.70;;;4.68;;
40511;SDS011;26213;52.446;20.706;2023-05-10T04:31:10;12.30;;;5.68;;
40511;SDS011;26213;52.446;20.706;2023-05-10T04:33:36;8.68;;;4.82;;
40511;SDS011;26213;52.446;20.706;2023-05-10T04:36:02;10.98;;;4.95;;
40511;SDS011;26213;52.446;20.706;2023-05-10T04:38:28;9.55;;;5.47;;
40511;SDS011;26213;52.446;20.706;2023-05-10T04:40:55;9.10;;;4.72;;
40511;SDS011;26213;52.446;20.706;2023-05-10T04:43:31;6.20;;;3.58;;
40511;SDS011;26213;52.446;20.706;2023-05-10T04:45:57;8.80;;;4.40;;
40511;SDS011;26213;52.446;20.706;2023-05-10T04:48:22;10.45;;;6.00;;
40511;SDS011;26213;52.446;20.706;2023-05-10T04:50:48;10.38;;;5.25;;
40511;SDS011;26213;52.446;20.706;2023-05-10T04:53:13;7.45;;;4.53;;
40511;SDS011;26213;52.446;20.706;2023-05-10T04:55:39;11.68;;;4.75;;
40511;SDS011;26213;52.446;20.706;2023-05-10T04:58:04;10.02;;;5.30;;
40511;SDS011;26213;52.446;20.706;2023-05-10T05:00:30;16.08;;;4.68;;
40511;SDS011;26213;52.446;20.706;2023-05-10T05:02:55;9.52;;;5.05;;
40511;SDS011;26213;52.446;20.706;2023-05-10T05:05:20;7.63;;;4.15;;
40511;SDS011;26213;52.446;20.706;2023-05-10T05:07:46;8.32;;;4.93;;
40511;SDS011;26213;52.446;20.706;2023-05-10T05:10:11;10.18;;;5.22;;
40511;SDS011;26213;52.446;20.706;2023-05-10T05:12:37;8.70;;;4.32;;
40511;SDS011;26213;52.446;20.706;2023-05-10T05:15:03;12.82;;;5.15;;
40511;SDS011;26213;52.446;20.706;2023-05-10T05:17:30;12.55;;;4.80;;
40511;SDS011;26213;52.446;20.706;2023-05-10T05:19:56;14.38;;;5.00;;
40511;SDS011;26213;52.446;20.706;2023-05-10T05:22:21;6.93;;;4.68;;
40511;SDS011;26213;52.446;20.706;2023-05-10T05:24:53;10.95;;;5.65;;
40511;SDS011;26213;52.446;20.706;2023-05-10T05:27:19;12.73;;;4.97;;
40511;SDS011;26213;52.446;20.706;2023-05-10T05:29:52;11.55;;;4.93;;
40511;SDS011;26213;52.446;20.706;2023-05-10T05:32:18;11.40;;;4.78;;
40511;SDS011;26213;52.446;20.706;2023-05-10T05:34:44;10.70;;;4.70;;
40511;SDS011;26213;52.446;20.706;2023-05-10T05:37:17;6.95;;;4.35;;
40511;SDS011;26213;52.446;20.706;2023-05-10T05:39:44;9.02;;;3.95;;
40511;SDS011;26213;52.446;20.706;2023-05-10T05:42:10;9.63;;;4.57;;
40511;SDS011;26213;52.446;20.706;2023-05-10T05:44:36;13.50;;;4.85;;
40511;SDS011;26213;52.446;20.706;2023-05-10T05:47:01;10.07;;;5.03;;
40511;SDS011;26213;52.446;20.706;2023-05-10T05:49:27;11.80;;;5.32;;
40511;SDS011;26213;52.446;20.706;2023-05-10T05:51:52;11.68;;;4.70;;
40511;SDS011;26213;52.446;20.706;2023-05-10T05:54:18;7.78;;;4.20;;
40511;SDS011;26213;52.446;20.706;2023-05-10T05:56:43;8.65;;;4.47;;
40511;SDS011;26213;52.446;20.706;2023-05-10T05:59:09;10.48;;;4.70;;
40511;SDS011;26213;52.446;20.706;2023-05-10T06:01:35;11.77;;;5.10;;
40511;SDS011;26213;52.446;20.706;2023-05-10T06:04:01;10.10;;;3.90;;
40511;SDS011;26213;52.446;20.706;2023-05-10T06:06:28;9.33;;;4.40;;
40511;SDS011;26213;52.446;20.706;2023-05-10T06:08:53;10.63;;;5.28;;
40511;SDS011;26213;52.446;20.706;2023-05-10T06:11:20;14.75;;;4.90;;
40511;SDS011;26213;52.446;20.706;2023-05-10T06:13:49;8.10;;;4.05;;
40511;SDS011;26213;52.446;20.706;2023-05-10T06:16:15;8.20;;;4.25;;
40511;SDS011;26213;52.446;20.706;2023-05-10T06:18:41;7.57;;;3.67;;
40511;SDS011;26213;52.446;20.706;2023-05-10T06:21:06;8.45;;;3.88;;
40511;SDS011;26213;52.446;20.706;2023-05-10T06:23:32;15.48;;;4.18;;
40511;SDS011;26213;52.446;20.706;2023-05-10T06:25:57;7.60;;;3.88;;
40511;SDS011;26213;52.446;20.706;2023-05-10T06:28:23;15.82;;;4.45;;
40511;SDS011;26213;52.446;20.706;2023-05-10T06:30:48;8.60;;;4.15;;
40511;SDS011;26213;52.446;20.706;2023-05-10T06:33:14;7.82;;;3.72;;
40511;SDS011;26213;52.446;20.706;2023-05-10T06:35:40;12.55;;;4.10;;
40511;SDS011;26213;52.446;20.706;2023-05-10T06:38:06;7.18;;;3.50;;
40511;SDS011;26213;52.446;20.706;2023-05-10T06:40:31;10.88;;;4.60;;
40511;SDS011;26213;52.446;20.706;2023-05-10T06:42:57;8.10;;;3.42;;
40511;SDS011;26213;52.446;20.706;2023-05-10T06:45:23;10.25;;;4.20;;
40511;SDS011;26213;52.446;20.706;2023-05-10T06:47:48;11.45;;;3.90;;
40511;SDS011;26213;52.446;20.706;2023-05-10T06:50:14;12.73;;;4.65;;
40511;SDS011;26213;52.446;20.706;2023-05-10T06:52:40;13.88;;;5.32;;
40511;SDS011;26213;52.446;20.706;2023-05-10T06:55:05;10.48;;;3.92;;
40511;SDS011;26213;52.446;20.706;2023-05-10T06:57:31;10.25;;;4.03;;
40511;SDS011;26213;52.446;20.706;2023-05-10T06:59:57;8.52;;;4.63;;
40511;SDS011;26213;52.446;20.706;2023-05-10T07:02:23;7.93;;;3.33;;
40511;SDS011;26213;52.446;20.706;2023-05-10T07:04:49;6.82;;;3.45;;
40511;SDS011;26213;52.446;20.706;2023-05-10T07:07:16;8.90;;;4.25;;
40511;SDS011;26213;52.446;20.706;2023-05-10T07:09:42;7.55;;;3.45;;
40511;SDS011;26213;52.446;20.706;2023-05-10T07:12:07;13.30;;;4.40;;
40511;SDS011;26213;52.446;20.706;2023-05-10T07:14:33;8.23;;;3.63;;
40511;SDS011;26213;52.446;20.706;2023-05-10T07:16:58;7.85;;;3.20;;
40511;SDS011;26213;52.446;20.706;2023-05-10T07:19:23;11.73;;;2.88;;
40511;SDS011;26213;52.446;20.706;2023-05-10T07:21:49;9.77;;;3.67;;
40511;SDS011;26213;52.446;20.706;2023-05-10T07:24:15;11.18;;;2.85;;
40511;SDS011;26213;52.446;20.706;2023-05-10T07:26:41;10.57;;;3.47;;
40511;SDS011;26213;52.446;20.706;2023-05-10T07:29:06;7.38;;;2.58;;
40511;SDS011;26213;52.446;20.706;2023-05-10T07:31:32;8.45;;;2.60;;
40511;SDS011;26213;52.446;20.706;2023-05-10T07:33:57;8.85;;;2.70;;
40511;SDS011;26213;52.446;20.706;2023-05-10T07:36:23;8.20;;;3.05;;
40511;SDS011;26213;52.446;20.706;2023-05-10T07:38:49;8.70;;;2.92;;
40511;SDS011;26213;52.446;20.706;2023-05-10T07:41:14;7.18;;;2.90;;
40511;SDS011;26213;52.446;20.706;2023-05-10T07:43:40;6.50;;;2.40;;
40511;SDS011;26213;52.446;20.706;2023-05-10T07:46:05;10.50;;;2.63;;
40511;SDS011;26213;52.446;20.706;2023-05-10T07:48:31;8.48;;;2.60;;
40511;SDS011;26213;52.446;20.706;2023-05-10T07:50:56;12.25;;;3.63;;
40511;SDS011;26213;52.446;20.706;2023-05-10T07:53:22;7.05;;;2.10;;
40511;SDS011;26213;52.446;20.706;2023-05-10T07:55:50;8.13;;;2.90;;
40511;SDS011;26213;52.446;20.706;2023-05-10T07:58:16;4.97;;;2.10;;
40511;SDS011;26213;52.446;20.706;2023-05-10T08:00:42;6.72;;;2.50;;
40511;SDS011;26213;52.446;20.706;2023-05-10T08:03:08;4.55;;;2.03;;
40511;SDS011;26213;52.446;20.706;2023-05-10T08:05:34;6.45;;;2.60;;
40511;SDS011;26213;52.446;20.706;2023-05-10T08:08:00;9.32;;;2.70;;
40511;SDS011;26213;52.446;20.706;2023-05-10T08:10:26;8.65;;;2.25;;
40511;SDS011;26213;52.446;20.706;2023-05-10T08:12:51;9.82;;;2.38;;
40511;SDS011;26213;52.446;20.706;2023-05-10T08:15:17;9.13;;;3.00;;
40511;SDS011;26213;52.446;20.706;2023-05-10T08:17:42;6.28;;;2.22;;
40511;SDS011;26213;52.446;20.706;2023-05-10T08:20:08;8.77;;;2.70;;
40511;SDS011;26213;52.446;20.706;2023-05-10T08:22:34;6.47;;;2.28;;
40511;SDS011;26213;52.446;20.706;2023-05-10T08:24:59;6.85;;;2.47;;
40511;SDS011;26213;52.446;20.706;2023-05-10T08:27:25;7.32;;;2.05;;
40511;SDS011;26213;52.446;20.706;2023-05-10T08:29:50;5.30;;;2.08;;
40511;SDS011;26213;52.446;20.706;2023-05-10T08:32:17;6.10;;;2.20;;
40511;SDS011;26213;52.446;20.706;2023-05-10T08:34:42;3.90;;;2.50;;
40511;SDS011;26213;52.446;20.706;2023-05-10T08:37:08;3.70;;;2.35;;
40511;SDS011;26213;52.446;20.706;2023-05-10T08:39:35;4.23;;;1.73;;
40511;SDS011;26213;52.446;20.706;2023-05-10T08:42:01;7.90;;;2.38;;
40511;SDS011;26213;52.446;20.706;2023-05-10T08:44:27;4.32;;;2.35;;
40511;SDS011;26213;52.446;20.706;2023-05-10T08:46:54;6.05;;;2.20;;
40511;SDS011;26213;52.446;20.706;2023-05-10T08:49:20;6.13;;;2.22;;
40511;SDS011;26213;52.446;20.706;2023-05-10T08:51:49;13.60;;;2.38;;
40511;SDS011;26213;52.446;20.706;2023-05-10T08:54:17;6.20;;;2.50;;
40511;SDS011;26213;52.446;20.706;2023-05-10T08:56:42;8.80;;;2.45;;
40511;SDS011;26213;52.446;20.706;2023-05-10T08:59:08;12.77;;;2.65;;
40511;SDS011;26213;52.446;20.706;2023-05-10T09:01:33;3.60;;;2.13;;
40511;SDS011;26213;52.446;20.706;2023-05-10T09:04:01;23.55;;;8.05;;
40511;SDS011;26213;52.446;20.706;2023-05-10T09:06:27;5.93;;;2.47;;
40511;SDS011;26213;52.446;20.706;2023-05-10T09:08:53;9.13;;;2.20;;
40511;SDS011;26213;52.446;20.706;2023-05-10T09:11:19;9.75;;;2.33;;
40511;SDS011;26213;52.446;20.706;2023-05-10T09:13:45;9.85;;;2.13;;
40511;SDS011;26213;52.446;20.706;2023-05-10T09:16:11;8.57;;;2.40;;
40511;SDS011;26213;52.446;20.706;2023-05-10T09:18:37;14.15;;;2.67;;
40511;SDS011;26213;52.446;20.706;2023-05-10T09:21:02;5.57;;;2.28;;
40511;SDS011;26213;52.446;20.706;2023-05-10T09:23:28;7.25;;;2.30;;
40511;SDS011;26213;52.446;20.706;2023-05-10T09:26:09;11.10;;;2.83;;
40511;SDS011;26213;52.446;20.706;2023-05-10T09:28:50;3.35;;;2.17;;
40511;SDS011;26213;52.446;20.706;2023-05-10T09:31:18;8.95;;;2.55;;
40511;SDS011;26213;52.446;20.706;2023-05-10T09:33:47;5.25;;;2.67;;
40511;SDS011;26213;52.446;20.706;2023-05-10T09:36:13;5.20;;;2.33;;
40511;SDS011;26213;52.446;20.706;2023-05-10T09:38:46;9.57;;;2.40;;
40511;SDS011;26213;52.446;20.706;2023-05-10T09:41:22;11.07;;;2.17;;
40511;SDS011;26213;52.446;20.706;2023-05-10T09:43:48;16.67;;;2.80;;
40511;SDS011;26213;52.446;20.706;2023-05-10T09:46:14;7.57;;;2.60;;
40511;SDS011;26213;52.446;20.706;2023-05-10T09:48:44;11.32;;;2.92;;
40511;SDS011;26213;52.446;20.706;2023-05-10T09:51:18;7.50;;;3.20;;
40511;SDS011;26213;52.446;20.706;2023-05-10T09:53:47;6.47;;;2.20;;
40511;SDS011;26213;52.446;20.706;2023-05-10T09:56:13;5.57;;;2.33;;
40511;SDS011;26213;52.446;20.706;2023-05-10T09:59:03;5.72;;;2.40;;
40511;SDS011;26213;52.446;20.706;2023-05-10T10:01:33;5.72;;;2.17;;
40511;SDS011;26213;52.446;20.706;2023-05-10T10:04:07;5.72;;;1.73;;
40511;SDS011;26213;52.446;20.706;2023-05-10T10:06:35;6.43;;;2.53;;
40511;SDS011;26213;52.446;20.706;2023-05-10T10:09:04;9.38;;;2.67;;
40511;SDS011;26213;52.446;20.706;2023-05-10T10:11:31;7.30;;;2.05;;
40511;SDS011;26213;52.446;20.706;2023-05-10T10:14:00;5.25;;;2.30;;
40511;SDS011;26213;52.446;20.706;2023-05-10T10:16:27;6.53;;;2.15;;
40511;SDS011;26213;52.446;20.706;2023-05-10T10:18:54;7.32;;;2.63;;
40511;SDS011;26213;52.446;20.706;2023-05-10T10:21:21;8.85;;;2.58;;
40511;SDS011;26213;52.446;20.706;2023-05-10T10:23:48;7.82;;;2.10;;
40511;SDS011;26213;52.446;20.706;2023-05-10T10:26:18;6.90;;;2.22;;
40511;SDS011;26213;52.446;20.706;2023-05-10T10:34:38;5.47;;;2.15;;
40511;SDS011;26213;52.446;20.706;2023-05-10T10:37:05;8.65;;;2.55;;
40511;SDS011;26213;52.446;20.706;2023-05-10T10:39:38;2.90;;;1.70;;
40511;SDS011;26213;52.446;20.706;2023-05-10T10:42:03;4.82;;;2.80;;
40511;SDS011;26213;52.446;20.706;2023-05-10T10:52:35;5.53;;;2.38;;
40511;SDS011;26213;52.446;20.706;2023-05-10T10:55:09;6.40;;;2.15;;
40511;SDS011;26213;52.446;20.706;2023-05-10T11:02:52;8.82;;;2.47;;
40511;SDS011;26213;52.446;20.706;2023-05-10T11:08:10;6.25;;;2.10;;
40511;SDS011;26213;52.446;20.706;2023-05-10T11:10:37;9.35;;;2.38;;
40511;SDS011;26213;52.446;20.706;2023-05-10T11:13:04;3.85;;;2.20;;
40511;SDS011;26213;52.446;20.706;2023-05-10T11:15:37;2.90;;;1.88;;
40511;SDS011;26213;52.446;20.706;2023-05-10T11:21:00;8.90;;;2.65;;
40511;SDS011;26213;52.446;20.706;2023-05-10T11:26:11;8.93;;;2.25;;
40511;SDS011;26213;52.446;20.706;2023-05-10T11:28:41;7.18;;;2.08;;
40511;SDS011;26213;52.446;20.706;2023-05-10T11:31:10;6.53;;;1.90;;
40511;SDS011;26213;52.446;20.706;2023-05-10T11:33:47;7.50;;;2.67;;
40511;SDS011;26213;52.446;20.706;2023-05-10T11:36:16;10.05;;;1.90;;
40511;SDS011;26213;52.446;20.706;2023-05-10T11:38:43;4.38;;;1.90;;
40511;SDS011;26213;52.446;20.706;2023-05-10T11:41:09;6.72;;;2.13;;
40511;SDS011;26213;52.446;20.706;2023-05-10T11:43:36;3.28;;;1.60;;
40511;SDS011;26213;52.446;20.706;2023-05-10T11:46:04;6.88;;;2.50;;
40511;SDS011;26213;52.446;20.706;2023-05-10T11:48:31;13.20;;;2.60;;
40511;SDS011;26213;52.446;20.706;2023-05-10T11:50:56;5.93;;;2.08;;
40511;SDS011;26213;52.446;20.706;2023-05-10T11:53:23;4.72;;;2.25;;
40511;SDS011;26213;52.446;20.706;2023-05-10T11:55:50;8.75;;;2.33;;
40511;SDS011;26213;52.446;20.706;2023-05-10T11:58:17;7.65;;;2.33;;
40511;SDS011;26213;52.446;20.706;2023-05-10T12:00:43;7.32;;;2.55;;
40511;SDS011;26213;52.446;20.706;2023-05-10T12:03:09;6.03;;;1.95;;
40511;SDS011;26213;52.446;20.706;2023-05-10T12:05:35;4.80;;;1.83;;
40511;SDS011;26213;52.446;20.706;2023-05-10T12:10:46;10.77;;;2.25;;
40511;SDS011;26213;52.446;20.706;2023-05-10T12:13:12;7.10;;;3.10;;
40511;SDS011;26213;52.446;20.706;2023-05-10T12:15:41;5.88;;;2.33;;
40511;SDS011;26213;52.446;20.706;2023-05-10T12:18:08;6.65;;;2.78;;
40511;SDS011;26213;52.446;20.706;2023-05-10T12:20:35;5.45;;;2.58;;
40511;SDS011;26213;52.446;20.706;2023-05-10T12:23:01;7.85;;;2.53;;
40511;SDS011;26213;52.446;20.706;2023-05-10T12:25:32;5.35;;;2.50;;
40511;SDS011;26213;52.446;20.706;2023-05-10T12:27:58;6.93;;;2.72;;
40511;SDS011;26213;52.446;20.706;2023-05-10T12:30:28;9.30;;;2.42;;
40511;SDS011;26213;52.446;20.706;2023-05-10T12:33:17;10.27;;;2.53;;
40511;SDS011;26213;52.446;20.706;2023-05-10T12:35:48;6.30;;;2.60;;
40511;SDS011;26213;52.446;20.706;2023-05-10T12:40:54;7.90;;;2.97;;
40511;SDS011;26213;52.446;20.706;2023-05-10T12:43:21;10.75;;;2.47;;
40511;SDS011;26213;52.446;20.706;2023-05-10T12:45:47;9.48;;;2.55;;
40511;SDS011;26213;52.446;20.706;2023-05-10T12:48:14;7.43;;;2.45;;
40511;SDS011;26213;52.446;20.706;2023-05-10T12:50:40;9.70;;;2.60;;
40511;SDS011;26213;52.446;20.706;2023-05-10T12:53:05;7.50;;;2.53;;
40511;SDS011;26213;52.446;20.706;2023-05-10T12:55:31;8.15;;;2.22;;
40511;SDS011;26213;52.446;20.706;2023-05-10T12:57:56;4.35;;;2.08;;
40511;SDS011;26213;52.446;20.706;2023-05-10T13:00:22;10.73;;;2.15;;
40511;SDS011;26213;52.446;20.706;2023-05-10T13:02:47;3.17;;;1.88;;
40511;SDS011;26213;52.446;20.706;2023-05-10T13:05:13;7.97;;;2.25;;
40511;SDS011;26213;52.446;20.706;2023-05-10T13:07:38;8.15;;;2.78;;
40511;SDS011;26213;52.446;20.706;2023-05-10T13:10:05;4.53;;;2.30;;
40511;SDS011;26213;52.446;20.706;2023-05-10T13:12:31;11.23;;;3.10;;
40511;SDS011;26213;52.446;20.706;2023-05-10T13:14:57;7.07;;;2.40;;
40511;SDS011;26213;52.446;20.706;2023-05-10T13:17:22;8.85;;;2.30;;
40511;SDS011;26213;52.446;20.706;2023-05-10T13:19:48;3.85;;;1.92;;
40511;SDS011;26213;52.446;20.706;2023-05-10T13:22:14;5.57;;;2.20;;
40511;SDS011;26213;52.446;20.706;2023-05-10T13:24:39;6.15;;;2.08;;
40511;SDS011;26213;52.446;20.706;2023-05-10T13:27:05;8.50;;;2.70;;
40511;SDS011;26213;52.446;20.706;2023-05-10T13:29:30;8.63;;;2.50;;
40511;SDS011;26213;52.446;20.706;2023-05-10T13:31:56;5.95;;;2.17;;
40511;SDS011;26213;52.446;20.706;2023-05-10T13:34:21;10.40;;;2.83;;
40511;SDS011;26213;52.446;20.706;2023-05-10T13:36:47;3.20;;;1.88;;
40511;SDS011;26213;52.446;20.706;2023-05-10T13:39:14;6.93;;;2.47;;
40511;SDS011;26213;52.446;20.706;2023-05-10T13:41:39;10.85;;;2.72;;
40511;SDS011;26213;52.446;20.706;2023-05-10T13:44:05;4.82;;;2.15;;
40511;SDS011;26213;52.446;20.706;2023-05-10T13:46:30;8.73;;;2.72;;
40511;SDS011;26213;52.446;20.706;2023-05-10T13:48:56;7.50;;;2.20;;
40511;SDS011;26213;52.446;20.706;2023-05-10T13:51:22;10.73;;;2.38;;
40511;SDS011;26213;52.446;20.706;2023-05-10T13:53:47;7.22;;;2.08;;
40511;SDS011;26213;52.446;20.706;2023-05-10T13:56:13;5.60;;;2.00;;
40511;SDS011;26213;52.446;20.706;2023-05-10T13:58:39;7.63;;;2.28;;
40511;SDS011;26213;52.446;20.706;2023-05-10T14:01:04;8.23;;;2.70;;
40511;SDS011;26213;52.446;20.706;2023-05-10T14:03:30;6.72;;;2.42;;
40511;SDS011;26213;52.446;20.706;2023-05-10T14:05:59;6.75;;;2.20;;
40511;SDS011;26213;52.446;20.706;2023-05-10T14:08:28;10.30;;;2.15;;
40511;SDS011;26213;52.446;20.706;2023-05-10T14:10:53;9.07;;;2.10;;
40511;SDS011;26213;52.446;20.706;2023-05-10T14:13:21;7.05;;;2.33;;
40511;SDS011;26213;52.446;20.706;2023-05-10T14:15:46;5.88;;;2.70;;
40511;SDS011;26213;52.446;20.706;2023-05-10T14:18:12;3.03;;;2.22;;
40511;SDS011;26213;52.446;20.706;2023-05-10T14:20:37;7.32;;;2.38;;
40511;SDS011;26213;52.446;20.706;2023-05-10T14:23:03;6.03;;;2.38;;
40511;SDS011;26213;52.446;20.706;2023-05-10T14:25:28;9.15;;;2.35;;
40511;SDS011;26213;52.446;20.706;2023-05-10T14:27:54;6.70;;;2.30;;
40511;SDS011;26213;52.446;20.706;2023-05-10T14:30:20;7.13;;;2.30;;
40511;SDS011;26213;52.446;20.706;2023-05-10T14:32:45;5.20;;;2.40;;
40511;SDS011;26213;52.446;20.706;2023-05-10T14:35:11;5.97;;;2.40;;
40511;SDS011;26213;52.446;20.706;2023-05-10T14:37:37;6.10;;;2.63;;
40511;SDS011;26213;52.446;20.706;2023-05-10T14:40:03;6.25;;;2.35;;
40511;SDS011;26213;52.446;20.706;2023-05-10T14:42:29;6.20;;;2.63;;
40511;SDS011;26213;52.446;20.706;2023-05-10T14:44:56;6.70;;;2.33;;
40511;SDS011;26213;52.446;20.706;2023-05-10T14:47:22;8.73;;;2.58;;
40511;SDS011;26213;52.446;20.706;2023-05-10T14:49:47;5.40;;;1.90;;
40511;SDS011;26213;52.446;20.706;2023-05-10T14:52:13;8.23;;;2.53;;
40511;SDS011;26213;52.446;20.706;2023-05-10T14:54:39;4.57;;;2.15;;
40511;SDS011;26213;52.446;20.706;2023-05-10T14:57:05;8.15;;;2.38;;
40511;SDS011;26213;52.446;20.706;2023-05-10T14:59:32;6.35;;;1.90;;
40511;SDS011;26213;52.446;20.706;2023-05-10T15:01:57;7.22;;;2.40;;
40511;SDS011;26213;52.446;20.706;2023-05-10T15:04:23;4.50;;;2.38;;
40511;SDS011;26213;52.446;20.706;2023-05-10T15:06:48;4.95;;;2.60;;
40511;SDS011;26213;52.446;20.706;2023-05-10T15:09:14;6.28;;;2.30;;
40511;SDS011;26213;52.446;20.706;2023-05-10T15:11:40;4.13;;;2.10;;
40511;SDS011;26213;52.446;20.706;2023-05-10T15:14:06;5.40;;;2.40;;
40511;SDS011;26213;52.446;20.706;2023-05-10T15:16:31;6.88;;;2.33;;
40511;SDS011;26213;52.446;20.706;2023-05-10T15:18:56;5.78;;;2.05;;